Time;durP1;ratioP1;P1;durP2;ratioP2;P2;SDS_P1;SDS_P2;PMS_P1;PMS_P2;Temp;Humidity;BMP_temperature;BMP_pressure;BME280_temperature;BME280_humidity;BME280_pressure;Samples;Min_cycle;Max_cycle;Signal;HPM_P1;HPM_P2
2021/06/23 00:02:53;;;;;;;3.67;2.30;;;;;;;11.73;100.00;102369.48;1883446;74;86626;-74
2021/06/23 00:08:18;;;;;;;4.20;2.33;;;;;;;11.70;100.00;102365.80;1904875;72;39502;-73
2021/06/23 00:13:43;;;;;;;4.63;2.50;;;;;;;11.59;100.00;102384.31;1943335;73;39538;-73
2021/06/23 00:19:07;;;;;;;8.50;2.50;;;;;;;11.59;100.00;102380.13;1838690;77;85645;-73
2021/06/23 00:24:31;;;;;;;4.47;2.47;;;;;;;11.57;100.00;102379.53;1901931;73;39433;-73
2021/06/23 00:29:56;;;;;;;7.63;2.53;;;;;;;11.48;100.00;102379.66;1882948;75;86361;-74
2021/06/23 00:35:21;;;;;;;6.50;2.70;;;;;;;11.33;100.00;102379.42;1901991;73;39515;-73
2021/06/23 00:40:48;;;;;;;5.53;2.67;;;;;;;11.28;100.00;102380.73;1877967;75;86481;-73
2021/06/23 00:46:14;;;;;;;6.13;3.07;;;;;;;11.11;100.00;102379.34;1949583;73;39555;-75
2021/06/23 00:51:39;;;;;;;5.93;3.30;;;;;;;11.09;100.00;102377.34;1943986;73;39473;-72
2021/06/23 00:57:07;;;;;;;4.73;3.13;;;;;;;11.04;100.00;102377.24;1777135;80;86093;-83
2021/06/23 01:02:36;;;;;;;6.60;3.10;;;;;;;11.21;100.00;102377.28;1944801;73;39663;-73
2021/06/23 01:08:01;;;;;;;10.00;3.30;;;;;;;11.07;100.00;102375.91;1783081;79;86368;-74
2021/06/23 01:13:36;;;;;;;8.37;3.73;;;;;;;10.93;100.00;102384.58;1918907;73;39612;-83
2021/06/23 01:19:27;;;;;;;6.93;3.80;;;;;;;10.80;100.00;102379.87;1845663;76;85757;-73
2021/06/23 01:24:51;;;;;;;5.17;3.07;;;;;;;10.88;100.00;102378.07;1877412;75;85774;-74
2021/06/23 01:30:17;;;;;;;7.93;3.33;;;;;;;10.89;100.00;102376.98;1924208;73;39518;-74
2021/06/23 01:35:47;;;;;;;6.07;2.97;;;;;;;10.84;100.00;102382.44;1904936;75;86688;-73
2021/06/23 01:41:11;;;;;;;4.57;2.40;;;;;;;10.79;100.00;102376.78;1926325;73;39652;-74
2021/06/23 01:43:44;;;;;;;8.10;2.87;;;;;;;10.82;100.00;102383.26;1847683;75;934577;-74
2021/06/23 01:49:09;;;;;;;5.17;2.53;;;;;;;10.77;100.00;102373.42;1946255;71;85966;-72
2021/06/23 01:54:34;;;;;;;5.30;2.23;;;;;;;10.79;100.00;102369.30;1944558;73;39933;-73
2021/06/23 02:00:07;;;;;;;5.13;2.20;;;;;;;10.68;100.00;102374.38;1867672;75;86492;-74
2021/06/23 02:05:37;;;;;;;4.83;2.20;;;;;;;10.77;100.00;102370.65;1933609;72;39701;-74
2021/06/23 02:11:25;;;;;;;7.10;2.60;;;;;;;10.59;100.00;102375.86;1943253;71;86336;-74
2021/06/23 02:14:30;;;;;;;5.27;2.60;;;;;;;10.67;100.00;102382.41;1846285;75;934612;-73
2021/06/23 02:20:18;;;;;;;7.37;2.53;;;;;;;10.59;100.00;102380.03;1888787;74;86381;-73
2021/06/23 02:25:43;;;;;;;5.60;2.43;;;;;;;10.61;100.00;102372.27;1943056;73;39570;-74
2021/06/23 02:31:09;;;;;;;4.40;2.07;;;;;;;10.62;100.00;102382.84;1777785;78;86641;-74
2021/06/23 02:36:34;;;;;;;4.77;2.67;;;;;;;10.42;100.00;102388.31;1944758;73;39428;-74
2021/06/23 02:41:59;;;;;;;5.47;2.27;;;;;;;10.39;100.00;102386.03;1837238;77;86503;-83
2021/06/23 02:47:24;;;;;;;6.33;2.67;;;;;;;10.48;100.00;102390.08;1934788;72;39723;-72
2021/06/23 02:52:49;;;;;;;4.63;2.67;;;;;;;10.66;100.00;102395.15;1882138;75;86228;-73
2021/06/23 02:58:14;;;;;;;5.27;2.43;;;;;;;10.82;100.00;102395.77;1925867;73;39447;-74
2021/06/23 03:03:58;;;;;;;4.73;2.87;;;;;;;10.74;100.00;102384.48;1894306;72;85814;-75
2021/06/23 03:09:22;;;;;;;5.63;2.20;;;;;;;10.55;100.00;102389.95;1919758;73;39624;-73
2021/06/23 03:14:47;;;;;;;6.93;3.00;;;;;;;10.47;100.00;102398.69;1882724;75;86848;-73
2021/06/23 03:20:14;;;;;;;3.70;2.33;;;;;;;10.34;100.00;102391.48;1949728;73;39627;-73
2021/06/23 03:25:40;;;;;;;4.93;2.77;;;;;;;10.23;100.00;102403.45;1910780;73;39434;-74
2021/06/23 03:31:11;;;;;;;6.50;2.47;;;;;;;10.16;100.00;102408.30;1785273;79;87066;-73
2021/06/23 03:36:41;;;;;;;5.00;2.50;;;;;;;10.04;100.00;102406.06;1911612;73;39585;-73
2021/06/23 03:42:07;;;;;;;4.70;2.30;;;;;;;10.05;100.00;102409.15;1833367;77;86664;-74
2021/06/23 03:47:32;;;;;;;5.83;2.60;;;;;;;10.16;100.00;102415.25;1930275;72;39476;-73
2021/06/23 03:52:56;;;;;;;5.07;3.27;;;;;;;10.11;100.00;102410.08;1871613;75;86622;-73
2021/06/23 03:58:19;;;;;;;7.47;4.00;;;;;;;10.07;100.00;102404.18;1937168;72;39630;-74
2021/06/23 04:03:44;;;;;;;6.07;4.60;;;;;;;10.44;100.00;102402.78;1904819;75;86446;-73
2021/06/23 04:09:08;;;;;;;9.53;4.40;;;;;;;10.45;100.00;102405.86;1782502;79;86360;-73
2021/06/23 04:14:33;;;;;;;6.13;4.03;;;;;;;10.23;100.00;102403.98;1945161;73;39757;-74
2021/06/23 04:19:57;;;;;;;9.50;4.50;;;;;;;10.03;100.00;102412.16;1883180;75;86942;-73
2021/06/23 04:25:21;;;;;;;8.00;5.10;;;;;;;10.41;100.00;102426.05;1947210;73;39560;-73
2021/06/23 04:30:46;;;;;;;7.27;4.70;;;;;;;10.53;100.00;102419.91;1877662;75;86693;-73
2021/06/23 04:36:10;;;;;;;7.43;4.73;;;;;;;10.43;100.00;102421.95;1838902;77;86498;-73
2021/06/23 04:41:34;;;;;;;8.03;4.70;;;;;;;10.45;100.00;102416.98;1944367;73;39612;-73
2021/06/23 04:46:59;;;;;;;6.73;4.03;;;;;;;10.11;100.00;102421.19;1837920;77;86125;-72
2021/06/23 04:52:23;;;;;;;7.40;4.50;;;;;;;10.21;100.00;102428.40;1935124;72;40535;-73
2021/06/23 04:57:46;;;;;;;7.33;4.63;;;;;;;10.34;100.00;102439.25;1877562;75;85729;-72
2021/06/23 05:03:14;;;;;;;10.23;4.77;;;;;;;10.10;100.00;102441.73;1948857;73;39694;-72
2021/06/23 05:08:42;;;;;;;6.00;4.03;;;;;;;10.46;100.00;102451.16;1911641;73;40498;-73
2021/06/23 05:14:07;;;;;;;9.27;4.17;;;;;;;10.58;100.00;102449.73;1838551;77;86240;-74
2021/06/23 05:19:33;;;;;;;8.20;3.73;;;;;;;10.67;100.00;102449.11;1914333;73;39529;-73
2021/06/23 05:24:58;;;;;;;5.33;3.43;;;;;;;10.76;100.00;102447.63;1837346;77;86283;-83
2021/06/23 05:30:24;;;;;;;5.80;3.83;;;;;;;10.81;100.00;102454.69;1946665;73;40459;-74
2021/06/23 05:35:50;;;;;;;7.10;4.33;;;;;;;10.68;100.00;102456.36;1877438;75;86266;-73
2021/06/23 05:41:15;;;;;;;10.00;4.13;;;;;;;10.82;100.00;102463.87;1924053;73;39517;-84
2021/06/23 05:46:39;;;;;;;6.10;3.53;;;;;;;10.99;100.00;102456.42;1912627;73;39600;-73
2021/06/23 05:52:05;;;;;;;7.47;3.33;;;;;;;11.08;100.00;102459.07;1875052;75;86300;-74
2021/06/23 05:57:28;;;;;;;9.83;4.00;;;;;;;11.20;100.00;102450.14;1932546;72;39700;-74
2021/06/23 06:02:53;;;;;;;6.73;4.10;;;;;;;11.24;100.00;102454.11;1893412;75;86410;-74
2021/06/23 06:08:17;;;;;;;8.77;3.93;;;;;;;11.35;100.00;102457.91;1948714;73;39647;-74
2021/06/23 06:13:42;;;;;;;9.07;3.93;;;;;;;11.65;100.00;102447.30;1943035;73;39874;-74
2021/06/23 06:19:06;;;;;;;7.23;3.73;;;;;;;11.77;100.00;102446.68;1846473;76;86199;-74
2021/06/23 06:24:30;;;;;;;5.47;3.07;;;;;;;11.80;100.00;102454.55;1915669;72;39556;-75
2021/06/23 06:29:55;;;;;;;6.07;3.67;;;;;;;12.06;100.00;102447.97;1837474;77;86314;-75
2021/06/23 06:35:20;;;;;;;4.03;3.03;;;;;;;12.25;100.00;102440.44;1903536;73;39666;-75
2021/06/23 06:40:45;;;;;;;5.30;3.30;;;;;;;12.36;100.00;102442.83;1877241;75;86508;-74
2021/06/23 06:46:09;;;;;;;5.07;3.00;;;;;;;12.27;100.00;102440.19;1853253;75;86286;-73
2021/06/23 06:51:32;;;;;;;9.90;3.50;;;;;;;12.51;100.00;102454.16;1915583;73;39526;-82
2021/06/23 06:56:59;;;;;;;5.10;2.83;;;;;;;12.61;100.00;102456.23;1893206;74;86826;-76
2021/06/23 07:02:23;;;;;;;5.73;2.87;;;;;;;12.62;100.00;102452.36;1934374;72;39526;-73
2021/06/23 07:07:48;;;;;;;7.50;2.87;;;;;;;12.86;100.00;102455.69;1882259;75;86744;-75
2021/06/23 07:13:12;;;;;;;5.20;2.80;;;;;;;12.93;100.00;102462.74;1949676;72;39459;-75
2021/06/23 07:18:37;;;;;;;5.97;3.03;;;;;;;13.28;100.00;102447.52;1901627;73;39504;-76
2021/06/23 07:24:02;;;;;;;6.17;3.23;;;;;;;13.38;100.00;102444.28;1947512;71;86355;-76
2021/06/23 07:29:27;;;;;;;6.37;2.77;;;;;;;13.72;100.00;102444.00;1945955;73;39600;-72
2021/06/23 07:40:50;;;;;;;5.93;2.47;;;;;;;14.52;100.00;102441.72;1917524;73;39717;-79
2021/06/23 07:46:11;;;;;;;3.80;1.87;;;;;;;14.88;100.00;102427.88;1853652;75;86576;-80
2021/06/23 07:51:43;;;;;;;4.97;1.83;;;;;;;15.05;100.00;102432.67;1913138;73;39453;-80
2021/06/23 08:14:27;;;;;;;3.77;1.53;;;;;;;16.63;100.00;102410.36;1946168;73;39747;-77
2021/06/23 08:19:52;;;;;;;6.80;2.37;;;;;;;16.61;100.00;102402.78;1877038;75;85716;-80
2021/06/23 08:25:16;;;;;;;3.27;1.90;;;;;;;16.89;100.00;102407.70;1923663;73;39506;-80
2021/06/23 08:30:41;;;;;;;4.97;1.83;;;;;;;16.94;100.00;102408.23;1943698;73;39479;-77
2021/06/23 08:36:09;;;;;;;3.87;1.90;;;;;;;17.35;100.00;102403.16;1838268;77;85751;-72
2021/06/23 08:41:35;;;;;;;3.70;2.10;;;;;;;17.43;100.00;102394.09;1933537;72;39826;-77
2021/06/23 08:47:02;;;;;;;4.93;1.87;;;;;;;17.93;100.00;102391.39;1869245;76;85109;-78
2021/06/23 08:52:27;;;;;;;4.20;2.10;;;;;;;18.01;100.00;102378.92;1898358;73;39617;-76
2021/06/23 08:57:53;;;;;;;6.40;2.33;;;;;;;17.91;100.00;102379.05;1877784;75;86411;-78
2021/06/23 09:03:19;;;;;;;6.60;2.17;;;;;;;18.31;100.00;102372.13;1921776;73;39596;-75
2021/06/23 09:08:45;;;;;;;5.23;2.33;;;;;;;18.47;100.00;102372.77;1877169;75;86524;-74
2021/06/23 09:14:12;;;;;;;6.13;2.53;;;;;;;18.51;100.00;102370.45;1839041;77;86538;-78
2021/06/23 09:20:04;;;;;;;3.07;2.10;;;;;;;18.45;100.00;102372.21;1785045;79;85391;-76
2021/06/23 09:25:36;;;;;;;5.50;2.60;;;;;;;18.75;100.00;102372.39;1944534;73;40351;-76
2021/06/23 09:31:02;;;;;;;6.10;3.03;;;;;;;19.07;100.00;102358.41;1760249;80;86456;-73
2021/06/23 09:36:29;;;;;;;6.83;3.00;;;;;;;19.17;100.00;102359.63;1945574;73;40457;-76
2021/06/23 09:41:56;;;;;;;5.43;3.10;;;;;;;18.65;100.00;102353.70;1869353;77;86324;-72
2021/06/23 09:47:30;;;;;;;5.87;2.93;;;;;;;18.92;100.00;102352.98;1936241;72;39520;-77
2021/06/23 09:52:57;;;;;;;5.43;2.90;;;;;;;19.15;100.00;102347.84;1837036;77;86479;-71
2021/06/23 09:58:38;;;;;;;4.77;2.90;;;;;;;19.36;100.00;102354.81;1914739;73;39804;-76
2021/06/23 10:04:08;;;;;;;4.93;2.73;;;;;;;19.59;100.00;102350.79;1825239;78;86185;-72
2021/06/23 10:09:34;;;;;;;5.87;3.10;;;;;;;19.60;100.00;102355.25;1944855;73;39754;-72
2021/06/23 10:15:08;;;;;;;5.77;2.50;;;;;;;19.65;100.00;102341.91;1785280;79;86036;-77
2021/06/23 10:20:34;;;;;;;4.43;3.20;;;;;;;19.36;100.00;102353.41;1913770;73;39604;-76
2021/06/23 10:26:02;;;;;;;5.53;4.23;;;;;;;19.84;100.00;102343.26;1907569;74;86330;-72
2021/06/23 10:31:28;;;;;;;5.67;3.50;;;;;;;19.70;100.00;102344.64;1945985;73;39634;-80
2021/06/23 10:36:54;;;;;;;7.77;4.07;;;;;;;20.27;100.00;102339.56;1837093;77;86395;-72
2021/06/23 10:42:23;;;;;;;6.67;3.77;;;;;;;19.79;100.00;102341.94;1920430;73;39520;-72
2021/06/23 10:47:50;;;;;;;5.27;4.07;;;;;;;19.36;100.00;102343.53;1876834;75;86512;-75
2021/06/23 10:53:33;;;;;;;6.67;4.00;;;;;;;19.23;100.00;102340.66;1945720;73;39831;-78
2021/06/23 10:58:59;;;;;;;6.53;4.60;;;;;;;18.95;100.00;102335.50;1837614;77;86410;-71
2021/06/23 11:04:23;;;;;;;4.90;4.40;;;;;;;19.72;100.00;102330.25;1935293;72;39484;-77
2021/06/23 11:09:52;;;;;;;6.10;4.80;;;;;;;20.25;100.00;102329.98;1891299;74;86267;-76
2021/06/23 11:15:41;;;;;;;7.73;4.20;;;;;;;19.86;100.00;102329.09;1917159;73;39504;-76
2021/06/23 11:21:23;;;;;;;5.70;4.40;;;;;;;19.74;100.00;102331.59;1947038;73;39631;-76
2021/06/23 11:27:17;;;;;;;4.53;4.13;;;;;;;19.62;100.00;102334.09;1855786;76;86145;-74
2021/06/23 11:32:41;;;;;;;5.00;3.90;;;;;;;19.85;100.00;102325.20;1943620;73;39663;-76
2021/06/23 11:38:26;;;;;;;6.27;3.97;;;;;;;19.89;100.00;102328.50;1879894;74;86110;-71
2021/06/23 11:44:10;;;;;;;5.50;4.47;;;;;;;20.37;100.00;102322.42;1894079;73;86285;-71
2021/06/23 11:49:34;;;;;;;7.10;4.37;;;;;;;20.28;100.00;102320.88;1916647;72;39462;-70
2021/06/23 11:55:00;;;;;;;6.37;4.40;;;;;;;19.96;100.00;102318.19;1860992;76;86065;-72
2021/06/23 12:00:26;;;;;;;4.30;3.90;;;;;;;20.38;100.00;102312.23;1934010;73;40154;-77
2021/06/23 12:05:52;;;;;;;8.40;5.00;;;;;;;20.13;100.00;102316.98;1876900;75;86327;-72
2021/06/23 12:11:18;;;;;;;5.33;4.07;;;;;;;20.14;100.00;102310.20;1923005;73;39510;-76
2021/06/23 12:16:44;;;;;;;6.93;4.83;;;;;;;20.65;100.00;102302.03;1943246;72;40226;-76
2021/06/23 12:22:09;;;;;;;5.70;4.23;;;;;;;20.88;100.00;102297.50;1761907;80;86236;-74
2021/06/23 12:27:33;;;;;;;6.47;4.67;;;;;;;21.03;100.00;102299.12;1944488;73;39533;-78
2021/06/23 12:33:00;;;;;;;5.13;4.27;;;;;;;20.48;100.00;102301.30;1829571;78;86529;-76
2021/06/23 12:38:25;;;;;;;6.17;4.13;;;;;;;19.86;100.00;102302.30;1918528;72;39603;-71
2021/06/23 12:43:49;;;;;;;5.13;4.20;;;;;;;20.40;100.00;102300.07;1877285;75;86862;-76
2021/06/23 12:49:15;;;;;;;6.37;4.60;;;;;;;20.57;100.00;102299.97;1949425;73;39779;-76
2021/06/23 12:54:39;;;;;;;5.37;4.20;;;;;;;20.48;100.00;102295.66;1956768;73;39701;-76
2021/06/23 13:00:04;;;;;;;5.30;4.37;;;;;;;20.69;100.00;102290.36;1947767;71;86353;-76
2021/06/23 13:05:31;;;;;;;4.97;4.27;;;;;;;20.61;100.00;102293.95;1945190;73;39580;-73
2021/06/23 13:10:55;;;;;;;5.30;4.30;;;;;;;20.22;100.00;102287.46;1837267;77;86524;-70
2021/06/23 13:16:20;;;;;;;5.03;4.20;;;;;;;20.53;100.00;102272.95;1921192;73;39529;-79
2021/06/23 13:21:47;;;;;;;7.50;4.17;;;;;;;20.89;100.00;102270.09;1892270;74;85457;-76
2021/06/23 13:27:13;;;;;;;4.97;4.40;;;;;;;20.98;100.00;102266.75;1949318;73;39537;-79
2021/06/23 13:32:37;;;;;;;4.87;4.37;;;;;;;20.96;100.00;102256.94;1895762;73;39673;-76
2021/06/23 13:38:04;;;;;;;5.87;4.50;;;;;;;20.98;100.00;102253.20;1861890;76;86126;-80
2021/06/23 13:43:33;;;;;;;5.37;4.40;;;;;;;21.24;100.00;102249.42;1915590;73;39498;-76
2021/06/23 13:48:57;;;;;;;5.70;4.40;;;;;;;21.51;100.00;102248.41;1832887;78;86053;-76
2021/06/23 13:54:22;;;;;;;5.37;4.40;;;;;;;21.61;100.00;102238.78;1946519;73;39588;-71
2021/06/23 13:59:47;;;;;;;5.43;4.57;;;;;;;21.76;100.00;102249.68;1881897;74;85538;-72
2021/06/23 14:05:13;;;;;;;4.80;4.30;;;;;;;21.60;100.00;102248.45;1838479;77;86498;-80
2021/06/23 14:10:41;;;;;;;5.97;5.20;;;;;;;21.38;100.00;102242.28;1917288;73;39633;-80
2021/06/23 14:16:10;;;;;;;7.70;4.77;;;;;;;21.02;100.00;102249.41;1785288;79;86390;-76
2021/06/23 14:21:35;;;;;;;5.83;5.27;;;;;;;21.11;100.00;102248.06;1944346;73;39648;-76
2021/06/23 14:26:59;;;;;;;5.43;4.73;;;;;;;21.22;100.00;102239.02;1883026;75;86426;-76
2021/06/23 14:32:26;;;;;;;6.27;4.90;;;;;;;21.45;100.00;102243.21;1918930;72;39498;-76
2021/06/23 14:37:52;;;;;;;9.00;5.00;;;;;;;21.53;100.00;102222.05;1882683;75;86364;-76
2021/06/23 14:43:17;;;;;;;7.40;5.73;;;;;;;21.77;100.00;102235.80;1948862;73;39541;-77
2021/06/23 14:48:41;;;;;;;5.73;5.23;;;;;;;21.58;100.00;102230.97;1943446;72;39410;-76
2021/06/23 14:54:10;;;;;;;8.17;5.70;;;;;;;21.49;100.00;102225.84;1809629;78;86490;-76
2021/06/23 14:59:39;;;;;;;8.20;5.13;;;;;;;21.83;100.00;102218.91;1911017;73;39387;-76
2021/06/23 15:05:06;;;;;;;6.03;4.93;;;;;;;22.13;100.00;102214.34;1839242;77;86661;-76
2021/06/23 15:10:31;;;;;;;5.90;5.33;;;;;;;22.32;100.00;102221.13;1916991;73;39718;-77
2021/06/23 15:15:58;;;;;;;6.60;4.80;;;;;;;22.11;100.00;102219.52;1892798;74;85251;-77
2021/06/23 15:21:23;;;;;;;7.17;5.07;;;;;;;21.28;100.00;102222.76;1919817;73;39538;-83
2021/06/23 15:26:48;;;;;;;5.40;5.00;;;;;;;21.56;100.00;102212.93;1877133;75;86198;-73
2021/06/23 15:32:16;;;;;;;6.20;5.70;;;;;;;21.77;100.00;102213.16;1906926;73;39631;-76
2021/06/23 15:37:40;;;;;;;6.57;5.00;;;;;;;21.93;100.00;102221.48;1943470;73;39538;-75
2021/06/23 15:43:08;;;;;;;7.63;6.03;;;;;;;21.70;100.00;102218.45;1838556;76;85473;-75
2021/06/23 15:48:31;;;;;;;6.97;5.70;;;;;;;21.29;100.00;102215.38;1898044;73;39453;-78
2021/06/23 15:56:44;;;;;;;6.00;5.40;;;;;;;21.16;100.00;102214.89;1991536;71;86322;-76
2021/06/23 15:59:14;;;;;;;6.63;5.53;;;;;;;21.31;100.00;102213.62;1936660;73;932714;-75
2021/06/23 16:01:44;;;;;;;5.30;4.90;;;;;;;21.27;100.00;102217.67;1834443;75;1059458;-75
2021/06/23 16:04:14;;;;;;;5.77;5.27;;;;;;;21.25;100.00;102213.52;1877165;74;937059;-75
2021/06/23 16:06:44;;;;;;;5.57;5.07;;;;;;;21.29;100.00;102201.81;1847902;76;1036765;-75
2021/06/23 16:09:14;;;;;;;5.13;4.73;;;;;;;21.41;100.00;102206.28;1856275;75;937075;-76
2021/06/23 16:11:44;;;;;;;5.37;4.97;;;;;;;21.33;100.00;102202.27;1901898;74;936579;-77
2021/06/23 16:14:15;;;;;;;5.70;5.20;;;;;;;21.28;100.00;102202.39;1901712;74;934686;-76
2021/06/23 16:16:45;;;;;;;4.97;4.57;;;;;;;21.28;100.00;102198.73;1901675;74;936616;-75
2021/06/23 16:19:15;;;;;;;5.53;4.93;;;;;;;21.05;100.00;102205.57;1867434;75;934765;-75
2021/06/23 16:21:46;;;;;;;5.57;4.83;;;;;;;20.70;100.00;102196.86;1867536;75;936929;-76
2021/06/23 16:24:19;;;;;;;5.30;4.80;;;;;;;20.55;100.00;102211.34;1867450;75;934972;-75
2021/06/23 16:26:50;;;;;;;5.67;5.17;;;;;;;20.41;100.00;102204.91;1867446;75;936476;-75
2021/06/23 16:29:21;;;;;;;5.13;4.53;;;;;;;20.35;100.00;102200.55;1855323;75;936974;-77
2021/06/23 16:31:51;;;;;;;5.50;5.00;;;;;;;20.46;100.00;102204.79;1867477;75;936795;-75
2021/06/23 16:34:22;;;;;;;4.80;4.33;;;;;;;20.45;100.00;102203.14;1855328;75;936627;-75
2021/06/23 16:36:53;;;;;;;5.50;5.00;;;;;;;20.56;100.00;102196.08;1867410;75;936675;-74
2021/06/23 16:39:25;;;;;;;6.40;5.73;;;;;;;20.68;100.00;102196.34;1855080;75;936852;-75
2021/06/23 16:41:55;;;;;;;6.40;5.80;;;;;;;20.95;100.00;102192.54;1867558;75;936825;-75
2021/06/23 16:44:25;;;;;;;7.50;5.50;;;;;;;21.16;100.00;102188.04;1855319;75;938153;-75
2021/06/23 16:46:56;;;;;;;5.50;5.10;;;;;;;21.29;100.00;102189.09;1867414;75;936621;-76
2021/06/23 16:49:26;;;;;;;6.87;5.90;;;;;;;21.11;100.00;102200.02;1855311;75;937118;-75
2021/06/23 16:51:57;;;;;;;6.23;5.00;;;;;;;20.89;100.00;102200.88;1867431;75;936727;-75
2021/06/23 16:57:27;;;;;;;5.67;5.13;;;;;;;20.44;100.00;102205.70;1933228;72;39600;-75
2021/06/23 17:02:51;;;;;;;6.30;5.20;;;;;;;20.32;100.00;102197.77;1850165;74;86713;-72
2021/06/23 17:08:15;;;;;;;5.73;5.20;;;;;;;20.07;100.00;102194.10;1924703;73;39529;-74
2021/06/23 17:13:50;;;;;;;5.83;4.80;;;;;;;20.19;100.00;102186.52;1877494;75;86159;-74
2021/06/23 17:19:13;;;;;;;5.93;4.93;;;;;;;20.37;100.00;102189.76;1939705;72;39745;-72
2021/06/23 17:24:38;;;;;;;6.13;5.10;;;;;;;20.22;100.00;102183.89;1944155;73;39564;-74
2021/06/23 17:30:04;;;;;;;5.17;4.67;;;;;;;20.14;100.00;102185.22;1773372;79;85603;-74
2021/06/23 17:35:29;;;;;;;5.87;5.07;;;;;;;20.06;100.00;102191.61;1897665;73;39547;-75
2021/06/23 17:40:55;;;;;;;4.80;4.40;;;;;;;19.91;100.00;102192.20;1893999;75;86547;-72
2021/06/23 17:46:20;;;;;;;5.30;4.80;;;;;;;20.07;100.00;102193.30;1921800;73;39741;-75
2021/06/23 17:51:44;;;;;;;5.33;4.83;;;;;;;20.01;100.00;102191.16;1881525;75;86250;-74
2021/06/23 17:57:09;;;;;;;7.73;5.53;;;;;;;20.04;100.00;102193.33;1863597;76;86863;-74
2021/06/23 18:02:33;;;;;;;6.50;4.83;;;;;;;20.02;100.00;102190.01;1945247;73;39467;-72
2021/06/23 18:08:01;;;;;;;6.93;5.40;;;;;;;19.98;100.00;102188.97;1869528;76;86784;-75
2021/06/23 18:13:26;;;;;;;6.07;5.47;;;;;;;20.10;100.00;102191.23;1918009;73;39593;-72
2021/06/23 18:18:53;;;;;;;6.00;5.47;;;;;;;20.03;100.00;102194.48;1892994;74;85951;-76
2021/06/23 18:24:18;;;;;;;5.87;5.00;;;;;;;19.91;100.00;102192.20;1922555;73;39556;-74
2021/06/23 18:32:27;;;;;;;5.93;5.33;;;;;;;19.83;100.00;102197.75;1955246;70;39546;-76
2021/06/23 18:34:59;;;;;;;5.60;5.10;;;;;;;19.70;100.00;102193.80;1834802;76;933377;-83
2021/06/23 18:40:31;;;;;;;6.00;5.40;;;;;;;19.62;100.00;102195.95;1987435;69;39558;-76
2021/06/23 18:45:56;;;;;;;6.83;5.13;;;;;;;19.71;100.00;102190.41;1880285;75;86246;-77
2021/06/23 18:51:21;;;;;;;6.50;5.80;;;;;;;20.14;100.00;102190.86;1944495;73;40258;-76
2021/06/23 18:56:49;;;;;;;6.60;6.00;;;;;;;19.90;100.00;102199.56;1877163;75;86647;-78
2021/06/23 19:02:14;;;;;;;5.80;5.30;;;;;;;19.51;100.00;102195.30;1919499;74;40039;-76
2021/06/23 19:07:39;;;;;;;6.30;5.47;;;;;;;19.32;100.00;102200.18;2028458;70;40398;-80
2021/06/23 19:12:58;;;;;;;6.43;5.07;;;;;;;19.12;100.00;102204.80;1901277;74;86045;-79
2021/06/23 19:18:24;;;;;;;5.60;5.00;;;;;;;19.07;100.00;102205.73;1945060;73;39469;-79
2021/06/23 19:23:51;;;;;;;5.57;5.07;;;;;;;18.90;100.00;102205.48;1889794;74;86507;-82
2021/06/23 19:29:18;;;;;;;5.77;5.17;;;;;;;18.92;100.00;102201.77;1948225;73;39546;-78
2021/06/23 19:34:42;;;;;;;5.63;5.07;;;;;;;18.74;100.00;102199.82;1916318;73;39572;-75
2021/06/23 19:40:10;;;;;;;8.27;6.37;;;;;;;18.62;100.00;102200.31;1882865;75;85604;-77
2021/06/23 19:45:34;;;;;;;6.73;5.80;;;;;;;18.32;100.00;102206.95;1947477;72;39681;-76
2021/06/23 19:50:58;;;;;;;5.87;5.37;;;;;;;18.11;100.00;102208.67;1837602;77;86300;-79
2021/06/23 19:59:18;;;;;;;5.87;5.00;;;;;;;18.05;100.00;102202.87;1927053;72;39536;-77
2021/06/23 20:04:43;;;;;;;6.83;6.13;;;;;;;17.83;100.00;102206.82;1909384;72;39538;-78
2021/06/23 20:10:08;;;;;;;7.17;6.43;;;;;;;17.58;100.00;102208.55;1867374;75;86408;-78
2021/06/23 20:15:33;;;;;;;6.33;5.73;;;;;;;17.38;100.00;102215.19;1914333;73;39661;-75
2021/06/23 20:20:59;;;;;;;7.13;6.43;;;;;;;17.35;100.00;102217.77;1837635;77;86424;-74
2021/06/23 20:26:16;;;;;;;9.70;6.90;;;;;;;17.58;100.00;102224.00;1954445;72;39528;-76
2021/06/23 20:31:42;;;;;;;8.87;8.07;;;;;;;17.28;100.00;102225.96;1942194;73;39586;-76
2021/06/23 20:37:13;;;;;;;7.00;6.47;;;;;;;16.71;100.00;102238.58;1881775;75;85486;-76
2021/06/23 20:42:37;;;;;;;8.77;7.87;;;;;;;16.94;100.00;102240.65;1944198;73;39650;-75
2021/06/23 20:48:03;;;;;;;8.97;8.07;;;;;;;17.04;100.00;102239.13;1782966;79;86277;-75
2021/06/23 20:53:27;;;;;;;7.80;7.10;;;;;;;16.68;100.00;102250.41;1921928;73;40238;-78
2021/06/23 20:58:56;;;;;;;10.93;9.93;;;;;;;16.59;100.00;102251.59;1877418;75;86444;-75
2021/06/23 21:04:22;;;;;;;10.47;9.43;;;;;;;16.64;100.00;102256.33;1947421;73;39699;-75
2021/06/23 21:09:47;;;;;;;13.47;10.73;;;;;;;16.47;100.00;102260.91;1890922;74;86561;-77
2021/06/23 21:15:13;;;;;;;12.63;11.33;;;;;;;16.55;100.00;102262.25;1838771;77;85309;-75
2021/06/23 21:20:40;;;;;;;10.97;9.90;;;;;;;16.51;100.00;102254.14;1944141;73;39789;-75
2021/06/23 21:26:13;;;;;;;12.77;11.10;;;;;;;16.37;100.00;102257.59;1838477;77;86613;-75
2021/06/23 21:31:39;;;;;;;11.00;9.87;;;;;;;16.45;100.00;102268.76;1912709;73;40253;-75
2021/06/23 21:37:08;;;;;;;14.70;13.20;;;;;;;16.27;100.00;102261.84;1838421;77;86881;-76
2021/06/23 21:42:33;;;;;;;19.37;17.27;;;;;;;16.30;100.00;102263.25;1894768;73;39655;-76
2021/06/23 21:47:58;;;;;;;26.80;23.90;;;;;;;16.27;100.00;102272.23;1837457;77;86683;-77
2021/06/23 21:53:40;;;;;;;12.70;11.40;;;;;;;16.29;100.00;102269.98;1900844;73;39429;-78
2021/06/23 21:59:06;;;;;;;13.00;11.10;;;;;;;16.37;100.00;102266.56;1858866;76;86503;-77
2021/06/23 22:04:39;;;;;;;9.57;8.57;;;;;;;16.29;100.00;102272.23;1943970;73;39478;-78
2021/06/23 22:10:11;;;;;;;8.80;6.53;;;;;;;16.34;100.00;102264.35;1946467;71;86461;-77
2021/06/23 22:15:38;;;;;;;7.90;6.30;;;;;;;16.06;100.00;102281.86;1912940;73;39569;-76
2021/06/23 22:21:05;;;;;;;7.70;6.13;;;;;;;16.14;100.00;102274.25;1751633;80;86501;-78
2021/06/23 22:26:30;;;;;;;8.07;5.67;;;;;;;15.79;100.00;102277.48;1918211;72;39661;-77
2021/06/23 22:31:59;;;;;;;9.83;5.53;;;;;;;15.74;100.00;102274.72;1868737;75;86238;-77
2021/06/23 22:37:27;;;;;;;6.63;5.83;;;;;;;15.57;100.00;102275.62;1919288;73;39481;-76
2021/06/23 22:42:58;;;;;;;8.20;4.80;;;;;;;15.76;100.00;102273.86;1869448;76;85492;-77
2021/06/23 22:48:20;;;;;;;9.33;5.73;;;;;;;15.46;100.00;102285.95;1921276;73;39489;-77
2021/06/23 22:53:52;;;;;;;5.90;5.10;;;;;;;15.45;100.00;102287.08;1892509;74;86753;-77
2021/06/23 22:59:19;;;;;;;6.00;5.10;;;;;;;14.77;100.00;102305.30;1921381;73;39401;-76
2021/06/23 23:04:46;;;;;;;7.23;5.30;;;;;;;14.81;100.00;102298.58;1881791;75;86805;-77
2021/06/23 23:10:13;;;;;;;6.30;4.73;;;;;;;14.62;100.00;102294.09;1925513;73;39455;-78
2021/06/23 23:15:38;;;;;;;6.07;4.97;;;;;;;14.65;100.00;102293.53;1911263;73;39615;-76
2021/06/23 23:21:05;;;;;;;6.27;5.60;;;;;;;14.15;100.00;102304.01;1825285;76;86330;-74
2021/06/23 23:26:30;;;;;;;7.00;5.93;;;;;;;13.98;100.00;102295.00;1898088;73;39556;-81
2021/06/23 23:31:55;;;;;;;8.47;5.53;;;;;;;14.01;100.00;102290.25;1892512;74;86349;-82
2021/06/23 23:37:20;;;;;;;8.00;5.77;;;;;;;14.19;100.00;102279.98;1920495;73;39704;-81
2021/06/23 23:42:48;;;;;;;6.40;5.07;;;;;;;14.17;100.00;102293.93;1882143;75;86200;-78
2021/06/23 23:48:12;;;;;;;7.73;5.20;;;;;;;14.19;100.00;102282.78;1925332;73;39473;-81
2021/06/23 23:53:40;;;;;;;6.30;5.30;;;;;;;14.01;100.00;102276.28;1942153;72;40296;-83
2021/06/23 23:59:03;;;;;;;6.77;5.57;;;;;;;13.60;100.00;102273.31;1825229;78;86378;-81
